Time;durP1;ratioP1;P1;durP2;ratioP2;P2;SDS_P1;SDS_P2;PMS_P1;PMS_P2;Temp;Humidity;BMP_temperature;BMP_pressure;BME280_temperature;BME280_humidity;BME280_pressure;Samples;Min_cycle;Max_cycle;Signal;HPM_P1;HPM_P2
2024/01/28 00:00:46;;;;;;;4.68;4.28;;;4.40;99.90;;;;;;5032240;28;20029;-68
2024/01/28 00:03:12;;;;;;;3.75;3.55;;;4.30;99.90;;;;;;5026546;28;20033;-69
2024/01/28 00:05:38;;;;;;;3.30;3.20;;;4.30;99.90;;;;;;5031997;28;20104;-69
2024/01/28 00:08:05;;;;;;;3.75;3.55;;;4.30;99.90;;;;;;5031057;28;20393;-68
2024/01/28 00:10:31;;;;;;;10.40;5.82;;;4.20;99.90;;;;;;5025241;28;20029;-69
2024/01/28 00:12:57;;;;;;;4.07;3.88;;;4.20;99.90;;;;;;5032175;28;20030;-68
2024/01/28 00:15:23;;;;;;;7.03;6.35;;;4.20;99.90;;;;;;5031713;28;20029;-69
2024/01/28 00:17:50;;;;;;;2.83;2.72;;;4.20;99.90;;;;;;5044416;28;20052;-69
2024/01/28 00:20:15;;;;;;;9.25;5.03;;;4.20;99.90;;;;;;5049398;28;20029;-69
2024/01/28 00:22:41;;;;;;;2.85;2.75;;;4.20;99.90;;;;;;5055337;28;20047;-69
2024/01/28 00:25:07;;;;;;;3.55;3.45;;;4.20;99.90;;;;;;5036107;28;20072;-69
2024/01/28 00:27:32;;;;;;;5.28;4.85;;;4.20;99.90;;;;;;5032875;28;20030;-69
2024/01/28 00:29:58;;;;;;;4.18;3.97;;;4.10;99.90;;;;;;5034671;28;20033;-69
2024/01/28 00:32:23;;;;;;;6.65;5.68;;;4.10;99.90;;;;;;5035149;28;20735;-67
2024/01/28 00:34:49;;;;;;;5.72;3.88;;;4.10;99.90;;;;;;5039700;28;20042;-68
2024/01/28 00:37:14;;;;;;;11.23;5.53;;;4.00;99.90;;;;;;5048033;28;20477;-69
2024/01/28 00:39:40;;;;;;;6.57;5.38;;;4.00;99.90;;;;;;5041022;28;20026;-68
2024/01/28 00:42:05;;;;;;;4.18;3.85;;;4.00;99.90;;;;;;5035591;28;20029;-69
2024/01/28 00:44:31;;;;;;;7.93;4.50;;;4.00;99.90;;;;;;5042567;28;20033;-68
2024/01/28 00:46:57;;;;;;;5.05;4.57;;;4.00;99.90;;;;;;5038132;28;20033;-68
2024/01/28 00:49:32;;;;;;;5.32;4.68;;;4.00;99.90;;;;;;5035757;28;20392;-68
2024/01/28 00:51:57;;;;;;;9.30;5.38;;;4.00;99.90;;;;;;5031281;28;20082;-68
2024/01/28 00:54:24;;;;;;;3.53;3.33;;;4.00;99.90;;;;;;5049148;28;20029;-68
2024/01/28 00:56:50;;;;;;;9.43;5.15;;;4.00;99.90;;;;;;5044199;28;20021;-68
2024/01/28 00:59:15;;;;;;;3.15;2.97;;;4.00;99.90;;;;;;5033744;28;20436;-68
2024/01/28 01:01:41;;;;;;;11.27;4.70;;;4.00;99.90;;;;;;5051402;28;20021;-68
2024/01/28 01:04:07;;;;;;;4.20;3.80;;;4.00;99.90;;;;;;5037781;28;20041;-68
2024/01/28 01:06:32;;;;;;;3.63;3.20;;;4.00;99.90;;;;;;5037818;28;20079;-68
2024/01/28 01:08:59;;;;;;;3.30;3.03;;;4.00;99.90;;;;;;5038827;28;20067;-68
2024/01/28 01:11:25;;;;;;;9.38;3.83;;;4.00;99.90;;;;;;5041668;28;20469;-68
2024/01/28 01:13:51;;;;;;;3.45;3.25;;;4.00;99.90;;;;;;5032853;28;20037;-68
2024/01/28 01:16:17;;;;;;;2.83;2.72;;;3.90;99.90;;;;;;5054806;28;20040;-68
2024/01/28 01:18:43;;;;;;;2.42;2.33;;;3.90;99.90;;;;;;5045734;28;20026;-68
2024/01/28 01:21:08;;;;;;;2.47;2.15;;;3.90;99.90;;;;;;5043419;28;20052;-68
2024/01/28 01:23:34;;;;;;;2.53;2.42;;;3.90;99.90;;;;;;5034796;28;20044;-69
2024/01/28 01:26:00;;;;;;;4.35;3.95;;;3.90;99.90;;;;;;5035383;28;20041;-69
2024/01/28 01:28:31;;;;;;;2.97;2.88;;;3.90;99.90;;;;;;5053440;28;20029;-69
2024/01/28 01:31:01;;;;;;;4.03;3.38;;;3.90;99.90;;;;;;5054484;28;20072;-69
2024/01/28 01:33:27;;;;;;;2.75;2.65;;;3.90;99.90;;;;;;5038560;28;20037;-69
2024/01/28 01:35:53;;;;;;;3.60;3.33;;;3.80;99.90;;;;;;5043344;28;20102;-69
2024/01/28 01:38:18;;;;;;;2.83;2.72;;;3.80;99.90;;;;;;5054563;28;20026;-68
2024/01/28 01:40:44;;;;;;;3.28;3.13;;;3.80;99.90;;;;;;5053971;28;20366;-69
2024/01/28 01:43:09;;;;;;;2.80;2.70;;;3.80;99.90;;;;;;5054052;28;20465;-69
2024/01/28 01:45:40;;;;;;;13.18;3.50;;;3.70;99.90;;;;;;5054159;28;20128;-69
2024/01/28 01:48:10;;;;;;;5.78;5.43;;;3.70;99.90;;;;;;5054248;28;20040;-69
2024/01/28 01:50:36;;;;;;;8.18;4.68;;;3.70;99.90;;;;;;5044465;28;20362;-69
2024/01/28 01:53:04;;;;;;;3.88;3.67;;;3.60;99.90;;;;;;5033433;28;20033;-69
2024/01/28 01:55:30;;;;;;;3.55;3.45;;;3.60;99.90;;;;;;5034105;28;20037;-69
2024/01/28 01:57:56;;;;;;;5.30;4.97;;;3.50;99.90;;;;;;5033995;28;20359;-69
2024/01/28 02:00:22;;;;;;;6.68;3.95;;;3.50;99.90;;;;;;5051789;28;20033;-69
2024/01/28 02:02:47;;;;;;;5.72;4.65;;;3.40;99.90;;;;;;5053725;28;20397;-69
2024/01/28 02:05:13;;;;;;;3.58;3.47;;;3.40;99.90;;;;;;5052541;28;20037;-68
2024/01/28 02:07:39;;;;;;;5.00;4.72;;;3.30;99.90;;;;;;5033692;28;20032;-69
2024/01/28 02:10:05;;;;;;;5.20;4.90;;;3.30;99.90;;;;;;5034035;28;20030;-68
2024/01/28 02:12:31;;;;;;;4.90;4.20;;;3.20;99.90;;;;;;5019560;28;20042;-68
2024/01/28 02:15:09;;;;;;;3.30;3.20;;;3.20;99.90;;;;;;5019768;28;20032;-68
2024/01/28 02:17:35;;;;;;;3.20;3.10;;;3.20;99.90;;;;;;5053844;28;20033;-68
2024/01/28 02:20:02;;;;;;;4.85;4.55;;;3.10;99.90;;;;;;5053865;28;20023;-68
2024/01/28 02:22:28;;;;;;;4.03;3.72;;;3.10;99.90;;;;;;5053333;28;20036;-69
2024/01/28 02:24:54;;;;;;;3.50;3.40;;;3.10;99.90;;;;;;5051635;28;20037;-68
2024/01/28 02:27:19;;;;;;;3.47;3.35;;;3.10;99.90;;;;;;5033598;28;20162;-68
2024/01/28 02:29:45;;;;;;;3.40;3.30;;;3.10;99.90;;;;;;5032127;28;20029;-68
2024/01/28 02:32:13;;;;;;;3.30;3.20;;;3.10;99.90;;;;;;5040833;28;20026;-69
2024/01/28 02:34:39;;;;;;;3.40;3.30;;;3.10;99.90;;;;;;5026937;28;20025;-68
2024/01/28 02:37:04;;;;;;;5.45;4.82;;;3.00;99.90;;;;;;5053233;28;20090;-68
2024/01/28 02:39:30;;;;;;;4.28;4.07;;;3.00;99.90;;;;;;5049776;28;20070;-69
2024/01/28 02:41:55;;;;;;;4.80;4.38;;;3.00;99.90;;;;;;5033639;28;20082;-68
2024/01/28 02:44:21;;;;;;;4.70;4.30;;;3.00;99.90;;;;;;5031912;28;20041;-68
2024/01/28 02:46:46;;;;;;;4.50;4.30;;;3.00;99.90;;;;;;5039961;28;20024;-68
2024/01/28 02:49:12;;;;;;;3.70;3.60;;;3.00;99.90;;;;;;5053379;28;20020;-68
2024/01/28 02:51:37;;;;;;;4.95;4.65;;;3.00;99.90;;;;;;5052585;28;20029;-68
2024/01/28 02:54:03;;;;;;;4.25;4.07;;;3.00;99.90;;;;;;5034067;28;20069;-68
2024/01/28 02:56:29;;;;;;;4.43;4.22;;;3.00;99.90;;;;;;5033125;28;20060;-69
2024/01/28 02:58:55;;;;;;;3.63;3.47;;;3.00;99.90;;;;;;5033234;28;20029;-69
2024/01/28 03:01:20;;;;;;;5.45;4.85;;;3.00;99.90;;;;;;5031600;28;20029;-68
2024/01/28 03:03:46;;;;;;;4.35;4.15;;;3.00;99.90;;;;;;5033028;28;20076;-68
2024/01/28 03:06:12;;;;;;;4.43;4.22;;;3.00;99.90;;;;;;5032836;28;20033;-69
2024/01/28 03:08:37;;;;;;;6.03;5.45;;;3.00;99.90;;;;;;5032831;28;20488;-68
2024/01/28 03:11:03;;;;;;;4.70;4.40;;;3.00;99.90;;;;;;5032918;28;20048;-68
2024/01/28 03:13:28;;;;;;;5.60;5.20;;;3.00;99.90;;;;;;5030722;28;20033;-68
2024/01/28 03:15:55;;;;;;;3.88;3.78;;;3.10;99.90;;;;;;5032739;28;20033;-69
2024/01/28 03:18:21;;;;;;;4.53;4.32;;;3.10;99.90;;;;;;5021142;28;20157;-69
2024/01/28 03:20:47;;;;;;;3.60;3.50;;;3.10;99.90;;;;;;5027716;28;20538;-69
2024/01/28 03:23:14;;;;;;;4.50;4.20;;;3.00;99.90;;;;;;5032647;28;20108;-69
2024/01/28 03:25:39;;;;;;;3.60;3.50;;;3.00;99.90;;;;;;5031019;28;20421;-69
2024/01/28 03:28:06;;;;;;;3.55;3.45;;;3.00;99.90;;;;;;5032320;28;20033;-69
2024/01/28 03:30:31;;;;;;;4.10;3.90;;;3.00;99.90;;;;;;5032780;28;20040;-69
2024/01/28 03:32:58;;;;;;;5.00;4.80;;;3.10;99.90;;;;;;5032371;28;20030;-68
2024/01/28 03:35:24;;;;;;;4.22;4.10;;;3.00;99.90;;;;;;5032253;28;20049;-68
2024/01/28 03:37:50;;;;;;;4.00;3.90;;;3.00;99.90;;;;;;5032427;28;20087;-68
2024/01/28 03:40:16;;;;;;;4.65;4.45;;;3.00;99.90;;;;;;5031369;28;20440;-69
2024/01/28 03:42:42;;;;;;;4.65;4.45;;;3.00;99.90;;;;;;5031416;28;20040;-68
2024/01/28 03:45:09;;;;;;;4.90;4.65;;;3.00;99.90;;;;;;5032245;28;20038;-68
2024/01/28 03:47:38;;;;;;;4.53;4.32;;;3.00;99.90;;;;;;5028599;28;20033;-69
2024/01/28 03:50:05;;;;;;;4.30;4.20;;;3.00;99.90;;;;;;5012169;28;20026;-69
2024/01/28 03:52:30;;;;;;;4.60;4.43;;;2.90;99.90;;;;;;5011913;28;20076;-68
2024/01/28 03:54:56;;;;;;;5.65;5.35;;;2.90;99.90;;;;;;5012626;28;20437;-69
2024/01/28 03:57:22;;;;;;;5.18;4.97;;;2.90;99.90;;;;;;5012628;28;20133;-69
2024/01/28 03:59:47;;;;;;;5.63;5.32;;;2.90;99.90;;;;;;5012716;28;20034;-69
2024/01/28 04:02:16;;;;;;;4.63;4.43;;;2.80;99.90;;;;;;5012621;28;20057;-69
2024/01/28 04:04:42;;;;;;;4.32;4.22;;;2.80;99.90;;;;;;5023836;28;20040;-69
2024/01/28 04:07:07;;;;;;;5.65;5.10;;;2.80;99.90;;;;;;5027937;28;20112;-69
2024/01/28 04:09:33;;;;;;;4.10;4.00;;;2.80;99.90;;;;;;5012517;28;20029;-69
2024/01/28 04:11:59;;;;;;;8.57;5.82;;;2.80;99.90;;;;;;5012481;28;20037;-69
2024/01/28 04:14:24;;;;;;;6.68;6.25;;;2.70;99.90;;;;;;5028156;28;20065;-68
2024/01/28 04:16:50;;;;;;;3.63;3.53;;;2.70;99.90;;;;;;5030917;28;20061;-69
2024/01/28 04:19:16;;;;;;;4.90;4.63;;;2.70;99.90;;;;;;5032265;28;20237;-69
2024/01/28 04:21:41;;;;;;;4.93;4.68;;;2.70;99.90;;;;;;5031840;28;20504;-69
2024/01/28 04:24:07;;;;;;;3.95;3.85;;;2.70;99.90;;;;;;5031839;28;20477;-69
2024/01/28 04:26:33;;;;;;;4.70;3.85;;;2.70;99.90;;;;;;5031876;28;20029;-68
2024/01/28 04:28:59;;;;;;;4.10;3.90;;;2.70;99.90;;;;;;5031842;28;20029;-69
2024/01/28 04:31:26;;;;;;;5.03;4.50;;;2.70;99.90;;;;;;5030676;28;20035;-69
2024/01/28 04:33:54;;;;;;;6.95;6.03;;;2.70;99.90;;;;;;5030957;28;20041;-69
2024/01/28 04:36:19;;;;;;;4.32;4.10;;;2.70;99.90;;;;;;5032176;28;20095;-69
2024/01/28 04:38:45;;;;;;;3.70;3.60;;;2.60;99.90;;;;;;5031687;28;20029;-69
2024/01/28 04:41:10;;;;;;;4.32;3.75;;;2.70;99.90;;;;;;5031906;28;20442;-69
2024/01/28 04:43:38;;;;;;;3.50;3.40;;;2.70;99.90;;;;;;5031319;28;20060;-69
2024/01/28 04:46:04;;;;;;;4.43;4.10;;;2.60;99.90;;;;;;5030360;28;20055;-68
2024/01/28 04:48:29;;;;;;;8.00;7.47;;;2.60;99.90;;;;;;5029228;28;20477;-68
2024/01/28 04:50:55;;;;;;;5.82;5.07;;;2.60;99.90;;;;;;5029890;28;20044;-68
2024/01/28 04:53:22;;;;;;;4.38;4.07;;;2.60;99.90;;;;;;5040302;28;20528;-69
2024/01/28 04:55:48;;;;;;;6.88;6.22;;;2.50;99.90;;;;;;5030610;28;20037;-68
2024/01/28 04:58:14;;;;;;;4.97;4.50;;;2.60;99.90;;;;;;5037867;28;20051;-69
2024/01/28 05:00:39;;;;;;;8.18;5.90;;;2.60;99.90;;;;;;5047319;28;20024;-68
2024/01/28 05:03:05;;;;;;;4.00;3.78;;;2.60;99.90;;;;;;5041196;28;20036;-68
2024/01/28 05:05:31;;;;;;;4.93;4.55;;;2.60;99.90;;;;;;5043537;28;20041;-68
2024/01/28 05:07:57;;;;;;;5.10;4.60;;;2.50;99.90;;;;;;5049199;28;20059;-69
2024/01/28 05:10:23;;;;;;;4.07;3.85;;;2.50;99.90;;;;;;5027004;28;20100;-69
2024/01/28 05:12:49;;;;;;;4.20;4.00;;;2.50;99.90;;;;;;5048374;28;20478;-68
2024/01/28 05:15:16;;;;;;;4.75;4.45;;;2.50;99.90;;;;;;5039278;28;20432;-68
2024/01/28 05:17:43;;;;;;;3.80;3.60;;;2.50;99.90;;;;;;5045686;28;20021;-68
2024/01/28 05:20:09;;;;;;;3.80;3.70;;;2.50;99.90;;;;;;5035614;28;20176;-68
2024/01/28 05:22:35;;;;;;;12.00;4.68;;;2.50;99.90;;;;;;5049986;28;20104;-68
2024/01/28 05:25:02;;;;;;;4.00;3.85;;;2.50;99.90;;;;;;5038980;28;20124;-69
2024/01/28 05:27:29;;;;;;;9.10;4.97;;;2.50;99.90;;;;;;5034935;28;20025;-69
2024/01/28 05:29:55;;;;;;;4.40;4.20;;;2.50;99.90;;;;;;5026496;28;20034;-68
2024/01/28 05:32:21;;;;;;;5.78;4.20;;;2.50;99.90;;;;;;5048677;28;20033;-69
2024/01/28 05:34:47;;;;;;;4.50;4.13;;;2.50;99.90;;;;;;5028989;28;20041;-68
2024/01/28 05:37:15;;;;;;;4.30;4.10;;;2.60;99.90;;;;;;5031869;28;20457;-68
2024/01/28 05:39:41;;;;;;;4.30;4.00;;;2.50;99.90;;;;;;5042043;28;20033;-69
2024/01/28 05:42:06;;;;;;;5.57;4.63;;;2.60;99.90;;;;;;5048202;28;20488;-68
2024/01/28 05:44:32;;;;;;;4.45;4.15;;;2.60;99.90;;;;;;5034698;28;20039;-68
2024/01/28 05:46:58;;;;;;;3.75;3.55;;;2.60;99.90;;;;;;5050991;28;20039;-68
2024/01/28 05:49:23;;;;;;;3.63;3.53;;;2.60;99.90;;;;;;5044112;28;20040;-68
2024/01/28 05:51:49;;;;;;;3.53;3.42;;;2.60;99.90;;;;;;5047714;28;20024;-68
2024/01/28 05:54:15;;;;;;;4.00;3.70;;;2.60;99.90;;;;;;5037045;28;20532;-68
2024/01/28 05:56:41;;;;;;;4.00;3.85;;;2.70;99.90;;;;;;5043786;28;20027;-68
2024/01/28 05:59:06;;;;;;;4.32;4.13;;;2.70;99.90;;;;;;5044700;28;20473;-69
2024/01/28 06:01:32;;;;;;;3.90;3.70;;;2.70;99.90;;;;;;5036362;28;20032;-69
2024/01/28 06:03:58;;;;;;;3.38;3.17;;;2.80;99.90;;;;;;5026153;28;20041;-69
2024/01/28 06:06:23;;;;;;;3.60;3.40;;;2.80;99.90;;;;;;5043130;28;20079;-69
2024/01/28 06:08:49;;;;;;;2.90;2.80;;;2.90;99.90;;;;;;5048612;28;20036;-68
2024/01/28 06:11:14;;;;;;;6.90;6.45;;;2.90;99.90;;;;;;5042318;28;20112;-68
2024/01/28 06:13:40;;;;;;;2.70;2.60;;;3.00;99.90;;;;;;5040333;28;20462;-69
2024/01/28 06:16:07;;;;;;;3.55;3.25;;;3.00;99.90;;;;;;5032560;28;20052;-69
2024/01/28 06:18:32;;;;;;;2.33;2.30;;;3.10;99.90;;;;;;5049745;28;20028;-69
2024/01/28 06:20:58;;;;;;;3.05;2.95;;;3.10;99.90;;;;;;5040271;28;20025;-68
2024/01/28 06:23:23;;;;;;;2.95;2.75;;;3.10;99.90;;;;;;5043443;28;20446;-68
2024/01/28 06:25:50;;;;;;;3.15;2.95;;;3.10;99.90;;;;;;5047282;28;20491;-69
2024/01/28 06:28:15;;;;;;;3.60;3.38;;;3.10;99.90;;;;;;5021230;28;20509;-68
2024/01/28 06:30:41;;;;;;;2.90;2.80;;;3.10;99.90;;;;;;5049035;28;20034;-69
2024/01/28 06:33:10;;;;;;;3.75;3.45;;;3.10;99.90;;;;;;5039034;28;20032;-69
2024/01/28 06:35:36;;;;;;;3.10;2.95;;;3.10;99.90;;;;;;5036494;28;20139;-69
2024/01/28 06:38:01;;;;;;;3.08;2.85;;;3.10;99.90;;;;;;5047478;28;20488;-69
2024/01/28 06:40:27;;;;;;;3.10;3.00;;;3.10;99.90;;;;;;5036485;28;20079;-68
2024/01/28 06:42:54;;;;;;;4.70;4.38;;;3.10;99.90;;;;;;5047407;28;20450;-69
2024/01/28 06:45:24;;;;;;;2.95;2.75;;;3.10;99.90;;;;;;5042395;28;20056;-68
2024/01/28 06:47:52;;;;;;;3.10;2.90;;;3.00;99.90;;;;;;5051779;28;20035;-69
2024/01/28 06:50:19;;;;;;;2.38;2.30;;;3.00;99.90;;;;;;5034745;28;20398;-70
2024/01/28 06:52:45;;;;;;;2.60;2.45;;;3.00;99.90;;;;;;5041583;28;20049;-68
2024/01/28 06:55:11;;;;;;;2.30;2.20;;;3.00;99.90;;;;;;5044523;28;20472;-69
2024/01/28 06:57:37;;;;;;;3.75;3.35;;;3.00;99.90;;;;;;5044673;28;20036;-68
2024/01/28 07:00:04;;;;;;;4.35;3.03;;;3.00;99.90;;;;;;5037146;28;20025;-69
2024/01/28 07:02:31;;;;;;;1.70;1.70;;;3.00;99.90;;;;;;5048331;28;20029;-68
2024/01/28 07:04:57;;;;;;;1.80;1.80;;;3.00;99.90;;;;;;5038896;28;20040;-69
2024/01/28 07:07:23;;;;;;;1.38;1.38;;;3.00;99.90;;;;;;5039517;28;20045;-69
2024/01/28 07:09:48;;;;;;;1.50;1.50;;;3.10;99.90;;;;;;5040033;28;20013;-69
2024/01/28 07:12:14;;;;;;;1.48;1.48;;;3.00;99.90;;;;;;5035473;28;20124;-68
2024/01/28 07:14:41;;;;;;;1.80;1.80;;;3.10;99.90;;;;;;5043220;28;20030;-68
2024/01/28 07:17:07;;;;;;;3.85;2.55;;;3.10;99.90;;;;;;5025849;28;20059;-69
2024/01/28 07:19:33;;;;;;;3.33;2.75;;;3.10;99.90;;;;;;5034987;28;20450;-68
2024/01/28 07:21:58;;;;;;;1.75;1.73;;;3.00;99.90;;;;;;5037367;28;20472;-67
2024/01/28 07:24:24;;;;;;;4.68;3.15;;;3.00;99.90;;;;;;5032591;28;20034;-68
2024/01/28 07:26:50;;;;;;;2.25;2.15;;;3.00;99.90;;;;;;5032207;28;20401;-68
2024/01/28 07:29:15;;;;;;;1.10;1.10;;;3.00;99.90;;;;;;5032705;28;20029;-68
2024/01/28 07:31:41;;;;;;;2.45;2.25;;;2.90;99.90;;;;;;5032895;28;20026;-69
2024/01/28 07:34:06;;;;;;;1.58;1.48;;;2.90;99.90;;;;;;5032691;28;20029;-68
2024/01/28 07:36:32;;;;;;;2.28;2.15;;;2.90;99.90;;;;;;5032583;28;20049;-68
2024/01/28 07:38:57;;;;;;;2.25;2.15;;;2.80;99.90;;;;;;5030127;28;20037;-68
2024/01/28 07:41:26;;;;;;;1.00;1.00;;;2.80;99.90;;;;;;5026775;28;20022;-68
2024/01/28 07:43:52;;;;;;;1.67;1.58;;;2.80;99.90;;;;;;5031391;28;20572;-68
2024/01/28 07:46:18;;;;;;;0.95;0.95;;;2.80;99.90;;;;;;5038813;28;20144;-68
2024/01/28 07:48:44;;;;;;;6.07;2.13;;;2.70;99.90;;;;;;5038944;28;20026;-67
2024/01/28 07:51:10;;;;;;;1.27;1.27;;;2.80;99.90;;;;;;5035640;28;20108;-68
2024/01/28 07:53:35;;;;;;;7.68;1.83;;;2.80;99.90;;;;;;5044142;28;20104;-68
2024/01/28 07:56:02;;;;;;;0.90;0.90;;;2.80;99.90;;;;;;5042621;28;20457;-68
2024/01/28 07:58:28;;;;;;;1.00;1.00;;;2.80;99.90;;;;;;5035709;28;20017;-68
2024/01/28 08:00:55;;;;;;;1.75;1.65;;;2.80;99.90;;;;;;5048346;28;20082;-68
2024/01/28 08:03:21;;;;;;;1.08;1.08;;;2.90;99.90;;;;;;5032347;28;20066;-67
2024/01/28 08:05:48;;;;;;;1.65;1.50;;;2.90;99.90;;;;;;5038553;28;20029;-68
2024/01/28 08:08:13;;;;;;;1.98;1.88;;;2.90;99.90;;;;;;5039147;28;20029;-67
2024/01/28 08:10:39;;;;;;;1.77;1.65;;;3.00;99.90;;;;;;5047900;28;20104;-69
2024/01/28 08:13:05;;;;;;;3.15;2.83;;;3.00;99.90;;;;;;5033008;28;20045;-68
2024/01/28 08:15:30;;;;;;;2.85;1.50;;;3.00;99.90;;;;;;5030452;28;20400;-69
2024/01/28 08:17:56;;;;;;;0.82;0.82;;;3.10;99.90;;;;;;5028941;28;20033;-69
2024/01/28 08:20:22;;;;;;;0.68;0.68;;;3.10;99.90;;;;;;5040005;28;20021;-68
2024/01/28 08:22:47;;;;;;;1.63;1.52;;;3.10;99.90;;;;;;5034853;28;20037;-70
2024/01/28 08:25:14;;;;;;;2.08;1.67;;;3.20;99.90;;;;;;5037768;28;20041;-68
2024/01/28 08:27:40;;;;;;;1.27;1.10;;;3.20;99.90;;;;;;5030027;28;20021;-69
2024/01/28 08:30:07;;;;;;;1.42;1.35;;;3.20;99.90;;;;;;5040353;28;20145;-67
2024/01/28 08:32:33;;;;;;;4.13;2.35;;;3.30;99.90;;;;;;5037501;28;20061;-69
2024/01/28 08:34:59;;;;;;;1.38;1.25;;;3.30;99.90;;;;;;5034294;28;20088;-69
2024/01/28 08:37:27;;;;;;;1.10;1.10;;;3.30;99.90;;;;;;5046090;28;20765;-69
2024/01/28 08:39:53;;;;;;;0.77;0.75;;;3.30;99.90;;;;;;5027351;28;20428;-67
2024/01/28 08:42:19;;;;;;;5.60;2.03;;;3.40;99.90;;;;;;5017004;28;20026;-68
2024/01/28 08:44:46;;;;;;;3.15;1.52;;;3.40;99.90;;;;;;5049363;28;20037;-67
2024/01/28 08:47:12;;;;;;;1.35;1.35;;;3.40;99.90;;;;;;5051389;28;20040;-68
2024/01/28 08:49:38;;;;;;;0.43;0.43;;;3.50;99.90;;;;;;5032144;28;20131;-68
2024/01/28 08:52:04;;;;;;;0.75;0.75;;;3.50;99.90;;;;;;5043570;28;20483;-70
2024/01/28 08:54:30;;;;;;;1.35;0.95;;;3.60;99.90;;;;;;5046342;28;20108;-69
2024/01/28 08:56:57;;;;;;;0.73;0.73;;;3.60;99.90;;;;;;5043946;28;20159;-68
2024/01/28 08:59:22;;;;;;;0.70;0.70;;;3.70;99.90;;;;;;5043388;28;20214;-68
2024/01/28 09:01:49;;;;;;;2.13;1.55;;;3.80;99.90;;;;;;5045227;28;20493;-68
2024/01/28 09:04:15;;;;;;;2.00;1.48;;;3.80;99.90;;;;;;5051210;28;20025;-67
2024/01/28 09:06:41;;;;;;;1.35;0.75;;;3.90;99.90;;;;;;5046793;28;20056;-68
2024/01/28 09:09:08;;;;;;;2.88;1.92;;;3.90;99.90;;;;;;5049299;28;20018;-68
2024/01/28 09:11:37;;;;;;;0.88;0.80;;;4.00;99.90;;;;;;5029119;28;20022;-68
2024/01/28 09:14:04;;;;;;;0.32;0.32;;;4.00;99.90;;;;;;5025350;28;20080;-69
2024/01/28 09:16:30;;;;;;;1.95;0.90;;;4.10;99.90;;;;;;5038048;28;20021;-69
2024/01/28 09:18:55;;;;;;;1.85;1.65;;;4.20;99.90;;;;;;5051246;28;20048;-69
2024/01/28 09:21:25;;;;;;;0.85;0.85;;;4.30;99.90;;;;;;5040354;28;20033;-69
2024/01/28 09:23:52;;;;;;;0.30;0.30;;;4.40;99.90;;;;;;5025814;28;20109;-68
2024/01/28 09:26:17;;;;;;;0.32;0.32;;;4.50;99.90;;;;;;5036148;28;20040;-69
2024/01/28 09:28:43;;;;;;;1.13;0.77;;;4.60;99.90;;;;;;5040485;28;20454;-69
2024/01/28 09:31:09;;;;;;;0.40;0.40;;;4.70;99.90;;;;;;5043361;28;20053;-69
2024/01/28 09:33:34;;;;;;;1.15;1.05;;;4.80;99.90;;;;;;5018601;28;20062;-69
2024/01/28 09:36:01;;;;;;;0.90;0.65;;;5.00;99.90;;;;;;5040827;28;20095;-69
2024/01/28 09:38:27;;;;;;;0.88;0.88;;;5.30;99.90;;;;;;5035396;28;20056;-70
2024/01/28 09:40:53;;;;;;;1.40;0.63;;;5.50;99.90;;;;;;5031327;28;20099;-69
2024/01/28 09:43:30;;;;;;;2.03;0.47;;;5.90;99.90;;;;;;5044446;28;20037;-68
2024/01/28 09:45:56;;;;;;;0.15;0.15;;;6.30;99.90;;;;;;5036950;28;20029;-68
2024/01/28 09:48:22;;;;;;;1.67;0.75;;;6.90;99.90;;;;;;5033435;28;20042;-68
2024/01/28 09:50:48;;;;;;;2.85;2.65;;;7.50;99.90;;;;;;5032282;28;20028;-69
2024/01/28 09:53:14;;;;;;;2.40;1.40;;;8.00;99.90;;;;;;5033521;28;20029;-69
2024/01/28 09:55:40;;;;;;;1.83;1.13;;;9.00;99.90;;;;;;5022590;28;20030;-69
2024/01/28 09:58:06;;;;;;;0.17;0.17;;;9.80;99.90;;;;;;5028284;28;20481;-69
2024/01/28 10:00:32;;;;;;;1.75;0.73;;;10.60;99.90;;;;;;5034789;28;20029;-69
2024/01/28 10:02:57;;;;;;;0.15;0.15;;;11.40;99.90;;;;;;5033739;28;20455;-69
2024/01/28 10:05:23;;;;;;;1.27;0.65;;;12.00;99.80;;;;;;5033735;28;20041;-69
2024/01/28 10:07:57;;;;;;;0.80;0.80;;;12.60;98.70;;;;;;5033311;28;20022;-69
2024/01/28 10:10:23;;;;;;;0.17;0.17;;;13.00;97.70;;;;;;5033745;28;20056;-69
2024/01/28 10:12:49;;;;;;;1.55;0.63;;;13.40;96.80;;;;;;5032966;28;20434;-70
2024/01/28 10:15:17;;;;;;;2.17;1.35;;;13.90;96.10;;;;;;5034253;28;20147;-70
2024/01/28 10:18:24;;;;;;;0.40;0.35;;;14.40;95.10;;;;;;5031043;28;20087;-70
2024/01/28 10:20:51;;;;;;;2.15;1.25;;;14.70;94.90;;;;;;5022864;28;20021;-68
2024/01/28 10:23:17;;;;;;;0.40;0.10;;;15.20;94.30;;;;;;5032226;28;20385;-70
2024/01/28 10:25:45;;;;;;;0.32;0.32;;;15.60;94.10;;;;;;5033191;28;20077;-69
2024/01/28 10:28:11;;;;;;;5.47;0.55;;;16.10;93.70;;;;;;5049983;28;20377;-69
2024/01/28 10:30:37;;;;;;;0.10;0.10;;;16.70;92.70;;;;;;5047364;28;20028;-69
2024/01/28 10:33:03;;;;;;;0.10;0.10;;;17.20;92.40;;;;;;5038456;28;20041;-69
2024/01/28 10:35:28;;;;;;;0.10;0.10;;;17.60;92.00;;;;;;5043564;28;20051;-69
2024/01/28 10:37:56;;;;;;;0.38;0.38;;;17.90;91.50;;;;;;5053943;28;20425;-69
2024/01/28 10:40:27;;;;;;;1.80;1.65;;;18.20;91.20;;;;;;5037342;28;20030;-69
2024/01/28 10:42:57;;;;;;;0.40;0.40;;;18.40;90.20;;;;;;5034642;28;20033;-70
2024/01/28 10:45:24;;;;;;;0.35;0.22;;;18.40;90.50;;;;;;5053279;28;20039;-69
2024/01/28 10:47:54;;;;;;;0.10;0.10;;;18.50;90.30;;;;;;5046573;28;20033;-69
2024/01/28 10:50:24;;;;;;;2.35;0.65;;;18.70;90.20;;;;;;5032621;28;20033;-70
2024/01/28 10:52:51;;;;;;;2.60;1.23;;;18.90;89.30;;;;;;5036683;28;20021;-70
2024/01/28 10:55:18;;;;;;;0.40;0.40;;;18.90;88.80;;;;;;5027715;28;20491;-70
2024/01/28 10:57:45;;;;;;;0.10;0.10;;;18.90;88.20;;;;;;5031071;28;20025;-69
2024/01/28 11:00:16;;;;;;;1.10;0.68;;;19.00;89.80;;;;;;5042529;28;20432;-71
2024/01/28 11:02:42;;;;;;;1.55;0.90;;;19.10;89.00;;;;;;5034336;28;20469;-70
2024/01/28 11:05:09;;;;;;;0.10;0.10;;;19.10;85.80;;;;;;5037145;28;20057;-69
2024/01/28 11:07:35;;;;;;;0.10;0.10;;;19.00;87.70;;;;;;5029475;28;20037;-70
2024/01/28 11:10:04;;;;;;;0.40;0.40;;;19.30;88.00;;;;;;5032536;28;20029;-69
2024/01/28 11:12:29;;;;;;;0.10;0.10;;;19.30;86.70;;;;;;5048875;28;20031;-69
2024/01/28 11:14:59;;;;;;;0.20;0.20;;;19.20;86.50;;;;;;5036839;28;20025;-69
2024/01/28 11:17:34;;;;;;;2.08;0.45;;;19.50;87.20;;;;;;5043525;28;20420;-69
2024/01/28 11:20:11;;;;;;;2.10;1.30;;;19.30;85.90;;;;;;5040347;28;20030;-69
2024/01/28 11:22:54;;;;;;;0.10;0.10;;;19.30;87.60;;;;;;5044969;28;20045;-69
2024/01/28 11:25:24;;;;;;;0.10;0.10;;;19.60;86.80;;;;;;5035521;28;20381;-69
2024/01/28 11:27:50;;;;;;;2.88;1.13;;;19.60;86.30;;;;;;5038429;28;20085;-69
2024/01/28 11:30:24;;;;;;;2.08;1.30;;;19.90;85.70;;;;;;5029421;28;20036;-70
2024/01/28 11:33:13;;;;;;;0.20;0.20;;;20.10;86.10;;;;;;5029610;28;20028;-70
2024/01/28 11:35:41;;;;;;;0.10;0.10;;;20.30;86.10;;;;;;5031741;28;20063;-70
2024/01/28 11:38:07;;;;;;;0.20;0.20;;;20.50;85.90;;;;;;5045264;28;20037;-69
2024/01/28 11:40:36;;;;;;;0.50;0.50;;;20.70;85.50;;;;;;5032163;28;20021;-68
2024/01/28 11:43:05;;;;;;;0.30;0.30;;;20.90;84.70;;;;;;5028742;28;20397;-69
2024/01/28 11:45:31;;;;;;;0.38;0.38;;;20.90;84.90;;;;;;5040148;28;20216;-69
2024/01/28 11:47:57;;;;;;;1.75;1.20;;;20.90;85.20;;;;;;5030367;28;20136;-70
2024/01/28 11:50:23;;;;;;;0.10;0.10;;;20.70;84.30;;;;;;5045040;28;20627;-69
2024/01/28 11:52:48;;;;;;;4.28;1.10;;;20.60;84.60;;;;;;5034374;28;20025;-69
2024/01/28 11:55:16;;;;;;;1.83;0.47;;;20.60;84.10;;;;;;5039334;28;20061;-69
2024/01/28 11:57:47;;;;;;;2.50;0.90;;;20.20;84.30;;;;;;5044672;28;20033;-70
2024/01/28 12:00:14;;;;;;;0.40;0.40;;;20.20;84.30;;;;;;5044557;28;20033;-69
2024/01/28 12:02:41;;;;;;;0.10;0.10;;;19.80;85.10;;;;;;5043583;28;20033;-70
2024/01/28 12:05:07;;;;;;;0.30;0.30;;;19.50;85.50;;;;;;5045554;28;20050;-69
2024/01/28 12:07:37;;;;;;;1.05;0.73;;;19.50;85.40;;;;;;5041865;28;20057;-69
2024/01/28 12:10:07;;;;;;;0.60;0.57;;;19.20;85.50;;;;;;5037390;28;20036;-70
2024/01/28 12:12:34;;;;;;;0.57;0.57;;;18.90;85.90;;;;;;5014732;28;20065;-69
2024/01/28 12:15:04;;;;;;;0.80;0.65;;;18.50;86.10;;;;;;5030024;28;20029;-69
2024/01/28 12:17:37;;;;;;;1.08;0.75;;;18.40;86.90;;;;;;5046158;28;20107;-69
2024/01/28 12:20:04;;;;;;;3.65;1.58;;;18.30;87.70;;;;;;5035202;28;20026;-70
2024/01/28 12:22:37;;;;;;;0.63;0.63;;;18.30;87.70;;;;;;5043773;28;20031;-70
2024/01/28 12:25:08;;;;;;;0.20;0.20;;;18.20;87.60;;;;;;5043281;28;20033;-70
2024/01/28 12:27:34;;;;;;;0.80;0.80;;;18.00;89.00;;;;;;5042750;28;20373;-68
2024/01/28 12:30:00;;;;;;;0.20;0.20;;;17.90;88.10;;;;;;5019526;28;20481;-69
2024/01/28 12:32:25;;;;;;;4.47;2.20;;;17.90;88.70;;;;;;5051729;28;20041;-70
2024/01/28 12:34:51;;;;;;;0.57;0.57;;;17.80;87.10;;;;;;5030331;28;20022;-70
2024/01/28 12:37:17;;;;;;;0.10;0.10;;;17.50;89.40;;;;;;5031203;28;20049;-70
2024/01/28 12:39:42;;;;;;;2.20;1.30;;;17.60;89.70;;;;;;5044437;28;20092;-69
2024/01/28 12:42:08;;;;;;;3.40;1.17;;;17.50;88.90;;;;;;5049726;28;20033;-70
2024/01/28 12:44:33;;;;;;;0.30;0.30;;;17.50;89.40;;;;;;5047030;28;20048;-70
2024/01/28 12:46:59;;;;;;;0.43;0.38;;;17.50;88.70;;;;;;5051427;28;20033;-71
2024/01/28 12:49:24;;;;;;;5.20;1.52;;;17.40;88.30;;;;;;5043487;28;20032;-70
2024/01/28 12:51:51;;;;;;;0.38;0.38;;;17.40;88.80;;;;;;5044691;28;20099;-70